sensor_id;sensor_type;location;lat;lon;timestamp;temperature;humidity
9666;DHT22;4871;52.004;5.924;2023-07-31T00:00:00;17.4;71.0
9666;DHT22;4871;52.004;5.924;2023-07-31T00:01:00;17.5;70.6
9666;DHT22;4871;52.004;5.924;2023-07-31T00:02:00;17.5;70.4
9666;DHT22;4871;52.004;5.924;2023-07-31T00:03:00;17.5;70.3
9666;DHT22;4871;52.004;5.924;2023-07-31T00:04:00;17.5;70.1
9666;DHT22;4871;52.004;5.924;2023-07-31T00:05:00;17.5;70.1
9666;DHT22;4871;52.004;5.924;2023-07-31T00:06:00;17.5;70.2
9666;DHT22;4871;52.004;5.924;2023-07-31T00:07:00;17.4;70.9
9666;DHT22;4871;52.004;5.924;2023-07-31T00:08:00;17.4;70.4
9666;DHT22;4871;52.004;5.924;2023-07-31T00:09:00;17.4;70.7
9666;DHT22;4871;52.004;5.924;2023-07-31T00:10:00;17.4;71.0
9666;DHT22;4871;52.004;5.924;2023-07-31T00:11:00;17.4;70.7
9666;DHT22;4871;52.004;5.924;2023-07-31T00:12:00;17.4;70.3
9666;DHT22;4871;52.004;5.924;2023-07-31T00:13:00;17.4;70.4
9666;DHT22;4871;52.004;5.924;2023-07-31T00:14:00;17.5;70.3
9666;DHT22;4871;52.004;5.924;2023-07-31T00:15:00;17.5;70.4
9666;DHT22;4871;52.004;5.924;2023-07-31T00:16:00;17.5;70.3
9666;DHT22;4871;52.004;5.924;2023-07-31T00:17:00;17.5;70.2
9666;DHT22;4871;52.004;5.924;2023-07-31T00:18:01;17.5;70.0
9666;DHT22;4871;52.004;5.924;2023-07-31T00:19:00;17.4;70.2
9666;DHT22;4871;52.004;5.924;2023-07-31T00:20:00;17.5;70.1
9666;DHT22;4871;52.004;5.924;2023-07-31T00:21:00;17.5;69.8
9666;DHT22;4871;52.004;5.924;2023-07-31T00:22:00;17.4;70.3
9666;DHT22;4871;52.004;5.924;2023-07-31T00:23:00;17.4;71.0
9666;DHT22;4871;52.004;5.924;2023-07-31T00:24:00;17.4;71.3
9666;DHT22;4871;52.004;5.924;2023-07-31T00:25:00;17.4;71.6
9666;DHT22;4871;52.004;5.924;2023-07-31T00:26:00;17.4;70.7
9666;DHT22;4871;52.004;5.924;2023-07-31T00:27:00;17.4;70.4
9666;DHT22;4871;52.004;5.924;2023-07-31T00:28:00;17.4;70.6
9666;DHT22;4871;52.004;5.924;2023-07-31T00:29:00;17.4;70.5
9666;DHT22;4871;52.004;5.924;2023-07-31T00:30:00;17.4;70.3
9666;DHT22;4871;52.004;5.924;2023-07-31T00:31:01;17.4;70.4
9666;DHT22;4871;52.004;5.924;2023-07-31T00:32:00;17.4;70.4
9666;DHT22;4871;52.004;5.924;2023-07-31T00:33:00;17.4;70.5
9666;DHT22;4871;52.004;5.924;2023-07-31T00:34:00;17.3;72.1
9666;DHT22;4871;52.004;5.924;2023-07-31T00:35:00;17.3;70.9
9666;DHT22;4871;52.004;5.924;2023-07-31T00:36:00;17.4;70.9
9666;DHT22;4871;52.004;5.924;2023-07-31T00:37:00;17.4;71.4
9666;DHT22;4871;52.004;5.924;2023-07-31T00:38:00;17.4;70.9
9666;DHT22;4871;52.004;5.924;2023-07-31T00:39:00;17.4;70.9
9666;DHT22;4871;52.004;5.924;2023-07-31T00:40:00;17.4;70.8
9666;DHT22;4871;52.004;5.924;2023-07-31T00:41:00;17.4;71.6
9666;DHT22;4871;52.004;5.924;2023-07-31T00:42:00;17.3;70.9
9666;DHT22;4871;52.004;5.924;2023-07-31T00:43:00;17.4;71.2
9666;DHT22;4871;52.004;5.924;2023-07-31T00:44:00;17.4;71.1
9666;DHT22;4871;52.004;5.924;2023-07-31T00:45:00;17.4;70.8
9666;DHT22;4871;52.004;5.924;2023-07-31T00:46:00;17.4;70.8
9666;DHT22;4871;52.004;5.924;2023-07-31T00:47:00;17.4;70.7
9666;DHT22;4871;52.004;5.924;2023-07-31T00:48:01;17.4;71.1
9666;DHT22;4871;52.004;5.924;2023-07-31T00:49:00;17.4;70.8
9666;DHT22;4871;52.004;5.924;2023-07-31T00:50:00;17.4;71.0
9666;DHT22;4871;52.004;5.924;2023-07-31T00:51:01;17.3;71.3
9666;DHT22;4871;52.004;5.924;2023-07-31T00:52:00;17.4;71.9
9666;DHT22;4871;52.004;5.924;2023-07-31T00:53:00;17.4;71.0
9666;DHT22;4871;52.004;5.924;2023-07-31T00:54:00;17.4;70.9
9666;DHT22;4871;52.004;5.924;2023-07-31T00:55:00;17.4;70.9
9666;DHT22;4871;52.004;5.924;2023-07-31T00:56:00;17.4;71.2
9666;DHT22;4871;52.004;5.924;2023-07-31T00:57:00;17.4;71.3
9666;DHT22;4871;52.004;5.924;2023-07-31T00:58:00;17.4;71.2
9666;DHT22;4871;52.004;5.924;2023-07-31T00:59:00;17.4;71.6
9666;DHT22;4871;52.004;5.924;2023-07-31T01:00:00;17.4;71.5
9666;DHT22;4871;52.004;5.924;2023-07-31T01:01:00;17.4;71.5
9666;DHT22;4871;52.004;5.924;2023-07-31T01:02:00;17.4;71.7
9666;DHT22;4871;52.004;5.924;2023-07-31T01:03:00;17.4;71.4
9666;DHT22;4871;52.004;5.924;2023-07-31T01:04:00;17.4;71.3
9666;DHT22;4871;52.004;5.924;2023-07-31T01:05:01;17.4;71.5
9666;DHT22;4871;52.004;5.924;2023-07-31T01:06:11;17.4;71.6
9666;DHT22;4871;52.004;5.924;2023-07-31T01:07:03;17.4;71.6
9666;DHT22;4871;52.004;5.924;2023-07-31T01:08:04;17.4;70.9
9666;DHT22;4871;52.004;5.924;2023-07-31T01:09:02;17.4;71.1
9666;DHT22;4871;52.004;5.924;2023-07-31T01:10:04;17.4;71.5
9666;DHT22;4871;52.004;5.924;2023-07-31T01:11:04;17.4;71.5
9666;DHT22;4871;52.004;5.924;2023-07-31T01:12:02;17.4;71.4
9666;DHT22;4871;52.004;5.924;2023-07-31T01:13:01;17.4;71.4
9666;DHT22;4871;52.004;5.924;2023-07-31T01:15:03;17.4;71.4
9666;DHT22;4871;52.004;5.924;2023-07-31T01:16:00;17.4;72.1
9666;DHT22;4871;52.004;5.924;2023-07-31T01:17:00;17.4;72.1
9666;DHT22;4871;52.004;5.924;2023-07-31T01:18:00;17.4;72.1
9666;DHT22;4871;52.004;5.924;2023-07-31T01:19:00;17.4;71.6
9666;DHT22;4871;52.004;5.924;2023-07-31T01:20:03;17.4;71.6
9666;DHT22;4871;52.004;5.924;2023-07-31T01:21:03;17.4;71.6
9666;DHT22;4871;52.004;5.924;2023-07-31T01:29:01;17.5;72.7
9666;DHT22;4871;52.004;5.924;2023-07-31T01:30:06;17.5;73.6
9666;DHT22;4871;52.004;5.924;2023-07-31T01:31:02;17.5;74.2
9666;DHT22;4871;52.004;5.924;2023-07-31T01:32:01;17.5;73.4
9666;DHT22;4871;52.004;5.924;2023-07-31T01:33:03;17.5;73.2
9666;DHT22;4871;52.004;5.924;2023-07-31T01:34:01;17.5;73.2
9666;DHT22;4871;52.004;5.924;2023-07-31T01:35:00;17.5;72.8
9666;DHT22;4871;52.004;5.924;2023-07-31T01:36:00;17.5;73.1
9666;DHT22;4871;52.004;5.924;2023-07-31T01:37:00;17.5;73.0
9666;DHT22;4871;52.004;5.924;2023-07-31T01:38:00;17.5;73.5
9666;DHT22;4871;52.004;5.924;2023-07-31T01:39:01;17.5;73.5
9666;DHT22;4871;52.004;5.924;2023-07-31T01:40:00;17.5;72.8
9666;DHT22;4871;52.004;5.924;2023-07-31T01:41:00;17.5;73.9
9666;DHT22;4871;52.004;5.924;2023-07-31T01:42:00;17.5;73.4
9666;DHT22;4871;52.004;5.924;2023-07-31T01:43:00;17.5;73.6
9666;DHT22;4871;52.004;5.924;2023-07-31T01:44:00;17.5;73.6
9666;DHT22;4871;52.004;5.924;2023-07-31T01:45:00;17.5;74.0
9666;DHT22;4871;52.004;5.924;2023-07-31T01:46:00;17.5;74.6
9666;DHT22;4871;52.004;5.924;2023-07-31T01:47:00;17.5;74.6
9666;DHT22;4871;52.004;5.924;2023-07-31T02:00:00;17.6;73.0
9666;DHT22;4871;52.004;5.924;2023-07-31T02:01:00;17.7;73.1
9666;DHT22;4871;52.004;5.924;2023-07-31T02:02:00;17.7;73.1
9666;DHT22;4871;52.004;5.924;2023-07-31T02:03:00;17.6;73.6
9666;DHT22;4871;52.004;5.924;2023-07-31T02:04:00;17.6;73.3
9666;DHT22;4871;52.004;5.924;2023-07-31T02:05:00;17.6;73.3
9666;DHT22;4871;52.004;5.924;2023-07-31T02:30:00;17.6;76.0
9666;DHT22;4871;52.004;5.924;2023-07-31T02:31:00;17.6;75.4
9666;DHT22;4871;52.004;5.924;2023-07-31T02:32:00;17.6;74.5
9666;DHT22;4871;52.004;5.924;2023-07-31T02:33:00;17.6;74.5
9666;DHT22;4871;52.004;5.924;2023-07-31T02:34:00;17.6;74.5
9666;DHT22;4871;52.004;5.924;2023-07-31T02:35:00;17.6;74.6
9666;DHT22;4871;52.004;5.924;2023-07-31T02:36:00;17.6;75.1
9666;DHT22;4871;52.004;5.924;2023-07-31T02:37:00;17.6;74.3
9666;DHT22;4871;52.004;5.924;2023-07-31T02:38:00;17.6;74.1
9666;DHT22;4871;52.004;5.924;2023-07-31T02:39:00;17.7;74.1
9666;DHT22;4871;52.004;5.924;2023-07-31T02:40:00;17.7;74.0
9666;DHT22;4871;52.004;5.924;2023-07-31T02:41:00;17.7;74.2
9666;DHT22;4871;52.004;5.924;2023-07-31T02:42:01;17.6;75.0
9666;DHT22;4871;52.004;5.924;2023-07-31T02:43:00;17.6;75.0
9666;DHT22;4871;52.004;5.924;2023-07-31T02:44:00;17.6;74.7
9666;DHT22;4871;52.004;5.924;2023-07-31T02:45:00;17.6;74.3
9666;DHT22;4871;52.004;5.924;2023-07-31T02:46:00;17.6;74.3
9666;DHT22;4871;52.004;5.924;2023-07-31T02:47:00;17.6;74.6
9666;DHT22;4871;52.004;5.924;2023-07-31T02:48:00;17.6;74.7
9666;DHT22;4871;52.004;5.924;2023-07-31T02:49:00;17.6;74.7
9666;DHT22;4871;52.004;5.924;2023-07-31T02:51:00;17.6;74.1
9666;DHT22;4871;52.004;5.924;2023-07-31T02:52:00;17.6;74.7
9666;DHT22;4871;52.004;5.924;2023-07-31T02:53:00;17.6;75.5
9666;DHT22;4871;52.004;5.924;2023-07-31T02:54:00;17.6;74.5
9666;DHT22;4871;52.004;5.924;2023-07-31T02:55:00;17.7;74.1
9666;DHT22;4871;52.004;5.924;2023-07-31T02:56:00;17.7;74.0
9666;DHT22;4871;52.004;5.924;2023-07-31T02:57:00;17.6;74.6
9666;DHT22;4871;52.004;5.924;2023-07-31T02:58:00;17.6;74.6
9666;DHT22;4871;52.004;5.924;2023-07-31T03:00:00;17.7;73.7
9666;DHT22;4871;52.004;5.924;2023-07-31T03:01:00;17.7;73.7
9666;DHT22;4871;52.004;5.924;2023-07-31T03:03:00;17.6;74.5
9666;DHT22;4871;52.004;5.924;2023-07-31T03:04:00;17.6;74.3
9666;DHT22;4871;52.004;5.924;2023-07-31T03:06:00;17.6;74.5
9666;DHT22;4871;52.004;5.924;2023-07-31T03:29:00;17.6;74.7
9666;DHT22;4871;52.004;5.924;2023-07-31T03:30:02;17.6;75.1
9666;DHT22;4871;52.004;5.924;2023-07-31T03:31:00;17.6;74.3
9666;DHT22;4871;52.004;5.924;2023-07-31T03:32:00;17.6;74.3
9666;DHT22;4871;52.004;5.924;2023-07-31T03:33:00;17.6;74.3
9666;DHT22;4871;52.004;5.924;2023-07-31T03:34:00;17.6;74.4
9666;DHT22;4871;52.004;5.924;2023-07-31T03:35:00;17.6;74.4
9666;DHT22;4871;52.004;5.924;2023-07-31T03:36:00;17.6;74.4
9666;DHT22;4871;52.004;5.924;2023-07-31T03:38:00;17.6;75.0
9666;DHT22;4871;52.004;5.924;2023-07-31T03:39:00;17.6;74.7
9666;DHT22;4871;52.004;5.924;2023-07-31T03:40:00;17.6;74.5
9666;DHT22;4871;52.004;5.924;2023-07-31T03:41:00;17.6;74.4
9666;DHT22;4871;52.004;5.924;2023-07-31T03:42:00;17.6;74.4
9666;DHT22;4871;52.004;5.924;2023-07-31T03:43:00;17.6;74.3
9666;DHT22;4871;52.004;5.924;2023-07-31T03:46:00;17.5;75.1
9666;DHT22;4871;52.004;5.924;2023-07-31T03:47:00;17.5;75.1
9666;DHT22;4871;52.004;5.924;2023-07-31T03:48:00;17.5;74.9
9666;DHT22;4871;52.004;5.924;2023-07-31T03:49:00;17.6;75.2
9666;DHT22;4871;52.004;5.924;2023-07-31T03:50:00;17.5;75.6
9666;DHT22;4871;52.004;5.924;2023-07-31T03:51:00;17.5;75.6
9666;DHT22;4871;52.004;5.924;2023-07-31T03:52:00;17.5;74.6
9666;DHT22;4871;52.004;5.924;2023-07-31T03:53:00;17.6;74.6
9666;DHT22;4871;52.004;5.924;2023-07-31T03:54:00;17.5;75.4
9666;DHT22;4871;52.004;5.924;2023-07-31T03:55:00;17.6;74.4
9666;DHT22;4871;52.004;5.924;2023-07-31T03:56:00;17.6;74.2
9666;DHT22;4871;52.004;5.924;2023-07-31T03:57:00;17.6;74.0
9666;DHT22;4871;52.004;5.924;2023-07-31T03:58:00;17.6;73.8
9666;DHT22;4871;52.004;5.924;2023-07-31T03:59:00;17.6;74.0
9666;DHT22;4871;52.004;5.924;2023-07-31T04:00:00;17.6;74.0
9666;DHT22;4871;52.004;5.924;2023-07-31T04:03:00;17.6;73.9
9666;DHT22;4871;52.004;5.924;2023-07-31T04:04:00;17.6;73.6
9666;DHT22;4871;52.004;5.924;2023-07-31T04:05:00;17.6;73.7
9666;DHT22;4871;52.004;5.924;2023-07-31T04:06:00;17.6;73.7
9666;DHT22;4871;52.004;5.924;2023-07-31T04:08:00;17.5;74.5
9666;DHT22;4871;52.004;5.924;2023-07-31T04:09:01;17.5;74.3
9666;DHT22;4871;52.004;5.924;2023-07-31T04:10:00;17.5;74.2
9666;DHT22;4871;52.004;5.924;2023-07-31T04:11:00;17.5;74.3
9666;DHT22;4871;52.004;5.924;2023-07-31T04:12:00;17.5;74.4
9666;DHT22;4871;52.004;5.924;2023-07-31T04:13:00;17.5;74.4
9666;DHT22;4871;52.004;5.924;2023-07-31T04:14:00;17.5;74.2
9666;DHT22;4871;52.004;5.924;2023-07-31T04:15:00;17.5;74.2
9666;DHT22;4871;52.004;5.924;2023-07-31T04:16:00;17.5;74.2
9666;DHT22;4871;52.004;5.924;2023-07-31T04:18:00;17.5;74.0
9666;DHT22;4871;52.004;5.924;2023-07-31T04:19:00;17.5;73.9
9666;DHT22;4871;52.004;5.924;2023-07-31T04:20:00;17.5;73.9
9666;DHT22;4871;52.004;5.924;2023-07-31T04:24:00;17.6;73.5
9666;DHT22;4871;52.004;5.924;2023-07-31T04:25:00;17.6;73.5
9666;DHT22;4871;52.004;5.924;2023-07-31T04:26:00;17.5;73.7
9666;DHT22;4871;52.004;5.924;2023-07-31T04:27:00;17.5;73.9
9666;DHT22;4871;52.004;5.924;2023-07-31T04:28:00;17.5;73.9
9666;DHT22;4871;52.004;5.924;2023-07-31T04:29:00;17.6;74.0
9666;DHT22;4871;52.004;5.924;2023-07-31T04:30:00;17.6;73.8
9666;DHT22;4871;52.004;5.924;2023-07-31T04:31:00;17.6;73.8
9666;DHT22;4871;52.004;5.924;2023-07-31T04:32:00;17.5;74.1
9666;DHT22;4871;52.004;5.924;2023-07-31T04:33:00;17.5;74.3
9666;DHT22;4871;52.004;5.924;2023-07-31T04:34:00;17.5;74.3
9666;DHT22;4871;52.004;5.924;2023-07-31T04:35:00;17.5;74.3
9666;DHT22;4871;52.004;5.924;2023-07-31T04:36:00;17.5;73.9
9666;DHT22;4871;52.004;5.924;2023-07-31T04:37:00;17.5;73.9
9666;DHT22;4871;52.004;5.924;2023-07-31T04:38:00;17.5;73.6
9666;DHT22;4871;52.004;5.924;2023-07-31T04:39:00;17.5;73.6
9666;DHT22;4871;52.004;5.924;2023-07-31T04:40:00;17.5;73.6
9666;DHT22;4871;52.004;5.924;2023-07-31T04:41:00;17.6;73.7
9666;DHT22;4871;52.004;5.924;2023-07-31T04:42:00;17.5;73.7
9666;DHT22;4871;52.004;5.924;2023-07-31T04:43:00;17.5;73.6
9666;DHT22;4871;52.004;5.924;2023-07-31T04:44:01;17.5;73.6
9666;DHT22;4871;52.004;5.924;2023-07-31T04:45:00;17.6;73.5
9666;DHT22;4871;52.004;5.924;2023-07-31T04:46:00;17.5;74.2
9666;DHT22;4871;52.004;5.924;2023-07-31T04:59:00;17.5;73.8
9666;DHT22;4871;52.004;5.924;2023-07-31T05:00:00;17.5;73.8
9666;DHT22;4871;52.004;5.924;2023-07-31T05:01:00;17.5;73.8
9666;DHT22;4871;52.004;5.924;2023-07-31T05:02:00;17.5;73.5
9666;DHT22;4871;52.004;5.924;2023-07-31T05:03:00;17.6;73.4
9666;DHT22;4871;52.004;5.924;2023-07-31T05:04:00;17.6;73.4
9666;DHT22;4871;52.004;5.924;2023-07-31T05:06:00;17.5;73.5
9666;DHT22;4871;52.004;5.924;2023-07-31T05:07:00;17.5;73.5
9666;DHT22;4871;52.004;5.924;2023-07-31T05:08:00;17.6;73.3
9666;DHT22;4871;52.004;5.924;2023-07-31T05:09:00;17.6;73.1
9666;DHT22;4871;52.004;5.924;2023-07-31T05:10:00;17.6;73.1
9666;DHT22;4871;52.004;5.924;2023-07-31T05:11:00;17.6;73.1
9666;DHT22;4871;52.004;5.924;2023-07-31T05:13:00;17.5;73.6
9666;DHT22;4871;52.004;5.924;2023-07-31T05:16:00;17.5;73.8
9666;DHT22;4871;52.004;5.924;2023-07-31T05:17:00;17.4;75.1
9666;DHT22;4871;52.004;5.924;2023-07-31T05:19:00;17.4;75.0
9666;DHT22;4871;52.004;5.924;2023-07-31T05:20:00;17.4;74.5
9666;DHT22;4871;52.004;5.924;2023-07-31T05:21:00;17.5;74.2
9666;DHT22;4871;52.004;5.924;2023-07-31T05:22:00;17.5;74.2
9666;DHT22;4871;52.004;5.924;2023-07-31T05:24:00;17.5;74.1
9666;DHT22;4871;52.004;5.924;2023-07-31T05:26:02;17.5;73.8
9666;DHT22;4871;52.004;5.924;2023-07-31T05:27:00;17.5;73.7
9666;DHT22;4871;52.004;5.924;2023-07-31T05:28:00;17.5;74.0
9666;DHT22;4871;52.004;5.924;2023-07-31T05:29:00;17.5;74.0
9666;DHT22;4871;52.004;5.924;2023-07-31T05:30:00;17.4;74.5
9666;DHT22;4871;52.004;5.924;2023-07-31T05:31:01;17.4;74.5
9666;DHT22;4871;52.004;5.924;2023-07-31T05:32:00;17.5;73.9
9666;DHT22;4871;52.004;5.924;2023-07-31T05:33:00;17.5;74.0
9666;DHT22;4871;52.004;5.924;2023-07-31T05:34:00;17.5;74.0
9666;DHT22;4871;52.004;5.924;2023-07-31T05:35:00;17.5;74.1
9666;DHT22;4871;52.004;5.924;2023-07-31T05:36:00;17.5;73.9
9666;DHT22;4871;52.004;5.924;2023-07-31T05:37:00;17.5;73.9
9666;DHT22;4871;52.004;5.924;2023-07-31T05:38:00;17.5;73.7
9666;DHT22;4871;52.004;5.924;2023-07-31T05:39:00;17.5;73.7
9666;DHT22;4871;52.004;5.924;2023-07-31T05:40:00;17.5;73.8
9666;DHT22;4871;52.004;5.924;2023-07-31T05:41:00;17.5;73.8
9666;DHT22;4871;52.004;5.924;2023-07-31T05:42:00;17.5;73.8
9666;DHT22;4871;52.004;5.924;2023-07-31T05:43:00;17.5;73.8
9666;DHT22;4871;52.004;5.924;2023-07-31T05:59:00;17.5;73.8
9666;DHT22;4871;52.004;5.924;2023-07-31T06:00:00;17.5;74.0
9666;DHT22;4871;52.004;5.924;2023-07-31T06:01:00;17.5;74.0
9666;DHT22;4871;52.004;5.924;2023-07-31T06:02:00;17.5;75.6
9666;DHT22;4871;52.004;5.924;2023-07-31T06:03:00;17.5;75.6
9666;DHT22;4871;52.004;5.924;2023-07-31T06:05:01;17.4;74.9
9666;DHT22;4871;52.004;5.924;2023-07-31T06:06:00;17.4;74.9
9666;DHT22;4871;52.004;5.924;2023-07-31T06:30:00;17.5;74.6
9666;DHT22;4871;52.004;5.924;2023-07-31T06:31:00;17.6;75.2
9666;DHT22;4871;52.004;5.924;2023-07-31T06:32:00;17.6;75.2
9666;DHT22;4871;52.004;5.924;2023-07-31T06:33:00;17.5;74.7
9666;DHT22;4871;52.004;5.924;2023-07-31T06:34:00;17.5;74.7
9666;DHT22;4871;52.004;5.924;2023-07-31T06:35:00;17.5;74.7
9666;DHT22;4871;52.004;5.924;2023-07-31T06:36:00;17.5;74.9
9666;DHT22;4871;52.004;5.924;2023-07-31T06:37:00;17.5;74.9
9666;DHT22;4871;52.004;5.924;2023-07-31T06:39:00;17.6;74.6
9666;DHT22;4871;52.004;5.924;2023-07-31T06:40:00;17.6;74.7
9666;DHT22;4871;52.004;5.924;2023-07-31T06:41:00;17.6;74.7
9666;DHT22;4871;52.004;5.924;2023-07-31T06:42:00;17.6;76.4
9666;DHT22;4871;52.004;5.924;2023-07-31T06:43:06;17.6;75.8
9666;DHT22;4871;52.004;5.924;2023-07-31T06:44:00;17.6;75.8
9666;DHT22;4871;52.004;5.924;2023-07-31T06:45:00;17.7;75.9
9666;DHT22;4871;52.004;5.924;2023-07-31T06:46:04;17.6;75.6
9666;DHT22;4871;52.004;5.924;2023-07-31T06:47:00;17.6;75.6
9666;DHT22;4871;52.004;5.924;2023-07-31T06:48:02;17.6;75.4
9666;DHT22;4871;52.004;5.924;2023-07-31T06:49:00;17.7;75.7
9666;DHT22;4871;52.004;5.924;2023-07-31T06:50:00;17.7;75.2
9666;DHT22;4871;52.004;5.924;2023-07-31T06:51:00;17.7;76.0
9666;DHT22;4871;52.004;5.924;2023-07-31T06:53:00;17.7;75.6
9666;DHT22;4871;52.004;5.924;2023-07-31T06:54:00;17.7;75.6
9666;DHT22;4871;52.004;5.924;2023-07-31T06:55:01;17.7;75.3
9666;DHT22;4871;52.004;5.924;2023-07-31T06:56:00;17.7;76.0
9666;DHT22;4871;52.004;5.924;2023-07-31T06:57:00;17.7;75.2
9666;DHT22;4871;52.004;5.924;2023-07-31T06:58:00;17.7;75.6
9666;DHT22;4871;52.004;5.924;2023-07-31T06:59:00;17.7;75.6
9666;DHT22;4871;52.004;5.924;2023-07-31T07:00:00;17.8;75.1
9666;DHT22;4871;52.004;5.924;2023-07-31T07:01:00;17.8;75.7
9666;DHT22;4871;52.004;5.924;2023-07-31T07:02:00;17.8;74.6
9666;DHT22;4871;52.004;5.924;2023-07-31T07:03:00;17.8;75.3
9666;DHT22;4871;52.004;5.924;2023-07-31T07:05:00;17.9;75.7
9666;DHT22;4871;52.004;5.924;2023-07-31T07:06:00;17.8;75.3
9666;DHT22;4871;52.004;5.924;2023-07-31T07:07:00;17.8;75.3
9666;DHT22;4871;52.004;5.924;2023-07-31T07:31:00;18.1;76.0
9666;DHT22;4871;52.004;5.924;2023-07-31T07:32:00;18.1;76.0
9666;DHT22;4871;52.004;5.924;2023-07-31T07:33:00;18.1;76.2
9666;DHT22;4871;52.004;5.924;2023-07-31T07:35:00;18.1;75.8
9666;DHT22;4871;52.004;5.924;2023-07-31T07:36:00;18.1;77.6
9666;DHT22;4871;52.004;5.924;2023-07-31T07:37:00;18.1;76.3
9666;DHT22;4871;52.004;5.924;2023-07-31T07:38:01;18.2;77.8
9666;DHT22;4871;52.004;5.924;2023-07-31T07:39:00;18.1;78.9
9666;DHT22;4871;52.004;5.924;2023-07-31T07:40:00;18.1;77.2
9666;DHT22;4871;52.004;5.924;2023-07-31T07:41:00;18.1;77.2
9666;DHT22;4871;52.004;5.924;2023-07-31T07:42:00;18.1;77.2
9666;DHT22;4871;52.004;5.924;2023-07-31T07:43:00;18.1;77.2
9666;DHT22;4871;52.004;5.924;2023-07-31T07:45:00;18.1;77.5
9666;DHT22;4871;52.004;5.924;2023-07-31T07:46:00;18.1;76.4
9666;DHT22;4871;52.004;5.924;2023-07-31T07:47:00;18.1;75.8
9666;DHT22;4871;52.004;5.924;2023-07-31T07:48:00;18.1;76.4
9666;DHT22;4871;52.004;5.924;2023-07-31T07:49:00;18.2;75.6
9666;DHT22;4871;52.004;5.924;2023-07-31T07:50:00;18.2;75.5
9666;DHT22;4871;52.004;5.924;2023-07-31T07:51:00;18.2;75.5
9666;DHT22;4871;52.004;5.924;2023-07-31T07:53:00;18.2;75.8
9666;DHT22;4871;52.004;5.924;2023-07-31T07:54:00;18.3;76.4
9666;DHT22;4871;52.004;5.924;2023-07-31T07:55:00;18.3;75.7
9666;DHT22;4871;52.004;5.924;2023-07-31T07:56:00;18.3;74.9
9666;DHT22;4871;52.004;5.924;2023-07-31T07:57:00;18.3;75.4
9666;DHT22;4871;52.004;5.924;2023-07-31T07:58:00;18.3;75.4
9666;DHT22;4871;52.004;5.924;2023-07-31T07:59:00;18.3;77.2
9666;DHT22;4871;52.004;5.924;2023-07-31T08:00:00;18.3;76.8
9666;DHT22;4871;52.004;5.924;2023-07-31T08:01:00;18.2;75.5
9666;DHT22;4871;52.004;5.924;2023-07-31T08:02:00;18.2;75.2
9666;DHT22;4871;52.004;5.924;2023-07-31T08:03:00;18.2;76.1
9666;DHT22;4871;52.004;5.924;2023-07-31T08:04:00;18.2;76.9
9666;DHT22;4871;52.004;5.924;2023-07-31T08:05:00;18.2;75.4
9666;DHT22;4871;52.004;5.924;2023-07-31T08:06:00;18.3;77.0
9666;DHT22;4871;52.004;5.924;2023-07-31T08:07:00;18.3;75.7
9666;DHT22;4871;52.004;5.924;2023-07-31T08:08:00;18.3;75.6
9666;DHT22;4871;52.004;5.924;2023-07-31T08:09:05;18.3;75.0
9666;DHT22;4871;52.004;5.924;2023-07-31T08:10:00;18.3;76.6
9666;DHT22;4871;52.004;5.924;2023-07-31T08:11:00;18.3;75.7
9666;DHT22;4871;52.004;5.924;2023-07-31T08:12:03;18.3;76.3
9666;DHT22;4871;52.004;5.924;2023-07-31T08:13:00;18.3;76.3
9666;DHT22;4871;52.004;5.924;2023-07-31T08:14:00;18.3;76.3
9666;DHT22;4871;52.004;5.924;2023-07-31T08:15:00;18.3;76.3
9666;DHT22;4871;52.004;5.924;2023-07-31T08:16:00;18.3;75.5
9666;DHT22;4871;52.004;5.924;2023-07-31T08:17:00;18.3;76.6
9666;DHT22;4871;52.004;5.924;2023-07-31T08:18:00;18.4;77.0
9666;DHT22;4871;52.004;5.924;2023-07-31T08:19:00;18.4;75.6
9666;DHT22;4871;52.004;5.924;2023-07-31T08:20:00;18.3;76.4
9666;DHT22;4871;52.004;5.924;2023-07-31T08:21:02;18.3;77.4
9666;DHT22;4871;52.004;5.924;2023-07-31T08:22:00;18.3;77.4
9666;DHT22;4871;52.004;5.924;2023-07-31T08:24:00;18.3;75.3
9666;DHT22;4871;52.004;5.924;2023-07-31T08:25:00;18.4;77.3
9666;DHT22;4871;52.004;5.924;2023-07-31T08:26:00;18.4;77.1
9666;DHT22;4871;52.004;5.924;2023-07-31T08:27:00;18.4;77.1
9666;DHT22;4871;52.004;5.924;2023-07-31T08:28:00;18.4;77.7
9666;DHT22;4871;52.004;5.924;2023-07-31T08:29:00;18.4;77.7
9666;DHT22;4871;52.004;5.924;2023-07-31T08:30:00;18.4;77.7
9666;DHT22;4871;52.004;5.924;2023-07-31T08:31:00;18.4;76.7
9666;DHT22;4871;52.004;5.924;2023-07-31T08:32:00;18.4;77.1
9666;DHT22;4871;52.004;5.924;2023-07-31T08:33:00;18.4;76.8
9666;DHT22;4871;52.004;5.924;2023-07-31T08:34:00;18.5;77.3
9666;DHT22;4871;52.004;5.924;2023-07-31T08:35:00;18.5;77.3
9666;DHT22;4871;52.004;5.924;2023-07-31T08:36:01;18.4;75.5
9666;DHT22;4871;52.004;5.924;2023-07-31T08:37:00;18.4;75.8
9666;DHT22;4871;52.004;5.924;2023-07-31T08:38:00;18.5;76.9
9666;DHT22;4871;52.004;5.924;2023-07-31T08:39:00;18.5;75.4
9666;DHT22;4871;52.004;5.924;2023-07-31T08:40:00;18.5;76.5
9666;DHT22;4871;52.004;5.924;2023-07-31T08:41:00;18.5;76.8
9666;DHT22;4871;52.004;5.924;2023-07-31T08:42:00;18.5;76.7
9666;DHT22;4871;52.004;5.924;2023-07-31T08:43:02;18.5;76.7
9666;DHT22;4871;52.004;5.924;2023-07-31T08:44:00;18.4;76.0
9666;DHT22;4871;52.004;5.924;2023-07-31T08:45:01;18.5;75.9
9666;DHT22;4871;52.004;5.924;2023-07-31T08:46:01;18.5;76.2
9666;DHT22;4871;52.004;5.924;2023-07-31T08:47:00;18.5;76.1
9666;DHT22;4871;52.004;5.924;2023-07-31T08:48:00;18.5;76.1
9666;DHT22;4871;52.004;5.924;2023-07-31T08:49:02;18.5;76.1
9666;DHT22;4871;52.004;5.924;2023-07-31T08:50:01;18.5;76.1
9666;DHT22;4871;52.004;5.924;2023-07-31T08:51:00;18.5;75.5
9666;DHT22;4871;52.004;5.924;2023-07-31T08:52:00;18.6;77.2
9666;DHT22;4871;52.004;5.924;2023-07-31T08:53:00;18.6;77.2
9666;DHT22;4871;52.004;5.924;2023-07-31T08:54:00;18.5;75.6
9666;DHT22;4871;52.004;5.924;2023-07-31T08:55:00;18.6;75.5
9666;DHT22;4871;52.004;5.924;2023-07-31T08:56:00;18.6;74.9
9666;DHT22;4871;52.004;5.924;2023-07-31T08:57:00;18.5;74.9
9666;DHT22;4871;52.004;5.924;2023-07-31T08:58:01;18.5;74.9
9666;DHT22;4871;52.004;5.924;2023-07-31T09:00:00;18.5;76.1
9666;DHT22;4871;52.004;5.924;2023-07-31T09:01:02;18.5;76.1
9666;DHT22;4871;52.004;5.924;2023-07-31T09:02:05;18.6;76.3
9666;DHT22;4871;52.004;5.924;2023-07-31T09:03:05;18.6;76.3
9666;DHT22;4871;52.004;5.924;2023-07-31T09:04:01;18.6;76.1
9666;DHT22;4871;52.004;5.924;2023-07-31T09:05:01;18.6;76.4
9666;DHT22;4871;52.004;5.924;2023-07-31T09:06:00;18.6;76.5
9666;DHT22;4871;52.004;5.924;2023-07-31T09:07:01;18.7;77.4
9666;DHT22;4871;52.004;5.924;2023-07-31T09:08:02;18.7;77.4
9666;DHT22;4871;52.004;5.924;2023-07-31T09:09:00;18.7;75.8
9666;DHT22;4871;52.004;5.924;2023-07-31T09:10:00;18.7;75.6
9666;DHT22;4871;52.004;5.924;2023-07-31T09:11:02;18.7;75.7
9666;DHT22;4871;52.004;5.924;2023-07-31T09:12:00;18.7;75.5
9666;DHT22;4871;52.004;5.924;2023-07-31T09:13:00;18.7;75.5
9666;DHT22;4871;52.004;5.924;2023-07-31T09:15:00;18.7;76.2
9666;DHT22;4871;52.004;5.924;2023-07-31T09:16:00;18.8;75.7
9666;DHT22;4871;52.004;5.924;2023-07-31T09:17:00;18.8;75.7
9666;DHT22;4871;52.004;5.924;2023-07-31T09:18:02;18.8;75.6
9666;DHT22;4871;52.004;5.924;2023-07-31T09:19:02;18.8;75.6
9666;DHT22;4871;52.004;5.924;2023-07-31T09:20:13;18.8;77.4
9666;DHT22;4871;52.004;5.924;2023-07-31T09:21:01;18.8;77.1
9666;DHT22;4871;52.004;5.924;2023-07-31T09:22:00;18.7;76.1
9666;DHT22;4871;52.004;5.924;2023-07-31T09:23:05;18.7;76.1
9666;DHT22;4871;52.004;5.924;2023-07-31T09:24:00;18.8;77.5
9666;DHT22;4871;52.004;5.924;2023-07-31T09:25:13;18.8;77.5
9666;DHT22;4871;52.004;5.924;2023-07-31T09:26:00;18.8;76.2
9666;DHT22;4871;52.004;5.924;2023-07-31T09:27:01;18.8;77.0
9666;DHT22;4871;52.004;5.924;2023-07-31T09:28:02;18.8;76.2
9666;DHT22;4871;52.004;5.924;2023-07-31T09:29:01;18.9;77.3
9666;DHT22;4871;52.004;5.924;2023-07-31T09:30:00;18.9;76.7
9666;DHT22;4871;52.004;5.924;2023-07-31T09:31:00;18.8;76.0
9666;DHT22;4871;52.004;5.924;2023-07-31T09:32:00;18.8;76.6
9666;DHT22;4871;52.004;5.924;2023-07-31T09:33:02;18.8;76.6
9666;DHT22;4871;52.004;5.924;2023-07-31T09:34:00;18.8;77.0